createdAt,value
2023-04-18T00:02:38.806Z,18.60
2023-04-18T00:07:38.566Z,15.48
2023-04-18T00:12:37.780Z,20.15
2023-04-18T00:17:40.137Z,17.13
2023-04-18T00:22:43.954Z,19.63
2023-04-18T00:27:43.006Z,20.85
2023-04-18T00:32:41.934Z,19.27
2023-04-18T00:37:40.916Z,18.23
2023-04-18T00:42:40.539Z,24.65
2023-04-18T00:47:39.497Z,19.20
2023-04-18T00:52:38.909Z,21.95
2023-04-18T00:57:38.328Z,20.27
2023-04-18T01:02:38.276Z,20.95
2023-04-18T01:07:40.788Z,23.55
2023-04-18T01:12:39.664Z,22.63
2023-04-18T01:17:38.509Z,24.05
2023-04-18T01:22:37.542Z,23.30
2023-04-18T01:27:40.269Z,23.02
2023-04-18T01:32:39.135Z,24.45
2023-04-18T01:37:38.029Z,21.95
2023-04-18T01:42:37.019Z,23.13
2023-04-18T01:47:36.002Z,23.30
2023-04-18T01:52:34.958Z,27.73
2023-04-18T01:57:36.664Z,25.88
2023-04-18T02:02:35.776Z,30.80
2023-04-18T02:07:36.055Z,31.00
2023-04-18T02:12:35.047Z,30.98
2023-04-18T02:22:34.331Z,32.92
2023-04-18T02:27:33.100Z,31.05
2023-04-18T02:32:32.170Z,29.45
2023-04-18T02:37:31.377Z,34.25
2023-04-18T02:42:30.780Z,34.80
2023-04-18T02:47:33.308Z,34.60
2023-04-18T02:52:34.225Z,36.35
2023-04-18T02:57:33.054Z,34.50
2023-04-18T03:02:46.385Z,31.48
2023-04-18T03:08:03.697Z,32.17
2023-04-18T03:13:03.114Z,33.63
2023-04-18T03:18:02.436Z,31.85
2023-04-18T03:23:05.793Z,31.73
2023-04-18T03:28:47.800Z,31.42
2023-04-18T03:33:49.176Z,28.13
2023-04-18T03:38:48.416Z,31.23
2023-04-18T03:43:47.153Z,30.30
2023-04-18T03:48:46.179Z,28.45
2023-04-18T03:53:45.121Z,27.75
2023-04-18T03:58:43.984Z,29.10
2023-04-18T04:03:43.171Z,28.48
2023-04-18T04:08:42.119Z,30.73
2023-04-18T04:13:41.185Z,28.50
2023-04-18T04:18:40.683Z,30.58
2023-04-18T04:23:42.665Z,25.45
2023-04-18T04:28:47.480Z,24.17
2023-04-18T04:33:50.600Z,20.73
2023-04-18T04:38:52.401Z,23.95
2023-04-18T04:43:57.858Z,26.48
2023-04-18T04:49:01.350Z,25.10
2023-04-18T04:54:00.600Z,22.92
2023-04-18T04:59:00.014Z,25.02
2023-04-18T05:04:18.407Z,24.52
2023-04-18T05:09:17.420Z,24.75
2023-04-18T05:14:17.639Z,28.20
2023-04-18T05:19:16.446Z,26.80
2023-04-18T05:24:15.302Z,29.15
2023-04-18T05:29:14.340Z,30.90
2023-04-18T05:34:13.418Z,29.63
2023-04-18T05:39:12.464Z,27.27
2023-04-18T05:44:11.337Z,30.13
2023-04-18T05:49:10.184Z,30.40
2023-04-18T05:54:08.903Z,29.60
2023-04-18T05:59:07.677Z,27.42
2023-04-18T06:04:07.570Z,31.45
2023-04-18T06:09:06.546Z,30.95
2023-04-18T06:14:05.574Z,30.33
2023-04-18T06:19:05.283Z,26.38
2023-04-18T06:24:04.245Z,29.20
2023-04-18T06:29:03.208Z,25.90
2023-04-18T06:34:01.917Z,25.20
2023-04-18T06:39:01.124Z,26.40
2023-04-18T06:44:04.225Z,24.08
2023-04-18T06:49:03.842Z,26.50
2023-04-18T06:54:02.672Z,25.20
2023-04-18T06:59:01.715Z,23.52
2023-04-18T07:04:00.932Z,27.15
2023-04-18T07:09:01.577Z,25.50
2023-04-18T07:14:00.445Z,25.27
2023-04-18T07:18:59.210Z,26.55
2023-04-18T07:23:57.954Z,26.40
2023-04-18T07:28:56.751Z,23.40
2023-04-18T07:33:55.649Z,23.25
2023-04-18T07:38:54.656Z,26.05
2023-04-18T07:43:53.534Z,24.23
2023-04-18T07:48:52.528Z,26.25
2023-04-18T07:53:51.386Z,29.20
2023-04-18T07:58:50.231Z,24.65
2023-04-18T08:03:49.411Z,25.83
2023-04-18T08:08:48.351Z,26.35
2023-04-18T08:13:47.289Z,22.60
2023-04-18T08:18:46.260Z,22.63
2023-04-18T08:23:46.669Z,21.80
2023-04-18T08:28:46.592Z,26.02
2023-04-18T08:33:45.575Z,24.95
2023-04-18T08:38:44.305Z,23.45
2023-04-18T08:43:48.071Z,25.33
2023-04-18T08:48:50.031Z,23.50
2023-04-18T08:53:50.656Z,20.83
2023-04-18T08:58:50.565Z,21.67
2023-04-18T09:03:50.495Z,23.02
2023-04-18T09:09:10.648Z,22.30
2023-04-18T09:14:24.276Z,22.75
2023-04-18T09:19:23.868Z,23.30
2023-04-18T09:24:24.956Z,24.58
2023-04-18T09:29:43.546Z,22.67
2023-04-18T09:34:42.715Z,26.98
2023-04-18T09:39:44.027Z,25.63
2023-04-18T09:45:04.113Z,22.33
2023-04-18T09:50:08.430Z,27.52
2023-04-18T09:55:09.701Z,28.15
2023-04-18T10:00:17.091Z,21.83
2023-04-18T10:05:19.509Z,27.15
2023-04-18T10:10:19.708Z,23.20
2023-04-18T10:15:21.426Z,23.63
2023-04-18T10:20:22.793Z,25.42
2023-04-18T10:25:39.931Z,29.48
2023-04-18T10:30:41.659Z,27.95
2023-04-18T10:36:03.138Z,25.55
2023-04-18T10:41:26.746Z,23.63
2023-04-18T10:46:32.564Z,25.55
2023-04-18T10:51:32.282Z,24.30
2023-04-18T10:56:31.303Z,23.48
2023-04-18T11:01:33.013Z,22.13
2023-04-18T11:06:32.398Z,22.05
2023-04-18T11:11:31.199Z,25.33
2023-04-18T11:16:32.723Z,25.38
2023-04-18T11:21:32.253Z,23.40
2023-04-18T11:26:31.056Z,27.30
2023-04-18T11:31:31.603Z,26.85
2023-04-18T11:36:35.193Z,29.42
2023-04-18T11:41:33.938Z,25.67
2023-04-18T11:46:39.648Z,26.92
2023-04-18T11:51:38.920Z,26.23
2023-04-18T11:56:47.480Z,25.38
2023-04-18T12:01:46.363Z,24.50
2023-04-18T12:06:46.607Z,26.02
2023-04-18T12:12:00.198Z,25.40
2023-04-18T12:16:58.933Z,30.25
2023-04-18T12:22:06.641Z,25.92
2023-04-18T12:27:05.484Z,28.63
2023-04-18T12:32:04.494Z,30.05
2023-04-18T12:37:04.927Z,25.23
2023-04-18T12:42:03.877Z,26.45
2023-04-18T12:47:02.753Z,25.17
2023-04-18T12:52:01.612Z,31.13
2023-04-18T12:57:01.883Z,28.80
2023-04-18T13:02:00.860Z,25.98
2023-04-18T13:06:59.699Z,24.65
2023-04-18T13:11:58.887Z,24.13
2023-04-18T13:16:57.820Z,23.70
2023-04-18T13:21:56.970Z,25.92
2023-04-18T13:26:56.555Z,24.85
2023-04-18T13:31:55.673Z,24.88
2023-04-18T13:36:54.476Z,23.33
2023-04-18T13:41:54.781Z,25.65
2023-04-18T13:46:54.548Z,23.23
2023-04-18T13:51:53.606Z,24.98
2023-04-18T13:56:59.541Z,22.48
2023-04-18T14:01:59.123Z,19.65
2023-04-18T14:06:58.048Z,18.60
2023-04-18T14:11:58.276Z,23.40
2023-04-18T14:16:57.299Z,19.45
2023-04-18T14:21:56.188Z,20.90
2023-04-18T14:26:55.014Z,18.38
2023-04-18T14:31:53.822Z,23.52
2023-04-18T14:36:52.728Z,21.30
2023-04-18T14:41:51.534Z,19.85
2023-04-18T14:46:50.832Z,21.08
2023-04-18T14:51:49.611Z,17.95
2023-04-18T14:56:48.397Z,17.80
2023-04-18T15:01:47.282Z,18.13
2023-04-18T15:06:46.438Z,15.50
2023-04-18T15:11:45.345Z,14.85
2023-04-18T15:16:44.304Z,16.90
2023-04-18T15:21:43.123Z,15.90
2023-04-18T15:26:42.281Z,16.90
2023-04-18T15:31:41.094Z,17.00
2023-04-18T15:36:39.923Z,23.85
2023-04-18T15:41:39.321Z,21.15
2023-04-18T15:46:38.556Z,22.05
2023-04-18T15:51:37.692Z,23.10
2023-04-18T15:56:36.949Z,19.85
2023-04-18T16:01:35.806Z,19.60
2023-04-18T16:06:34.580Z,22.35
2023-04-18T16:11:33.414Z,23.23
2023-04-18T16:16:34.316Z,22.70
2023-04-18T16:21:33.169Z,21.75
2023-04-18T16:26:31.970Z,25.38
2023-04-18T16:31:30.913Z,24.13
2023-04-18T16:36:29.726Z,27.48
2023-04-18T16:41:28.612Z,26.88
2023-04-18T16:46:31.352Z,23.75
2023-04-18T16:51:31.252Z,22.48
2023-04-18T16:56:30.061Z,14.25
2023-04-18T17:01:28.954Z,12.88
2023-04-18T17:06:27.846Z,25.75
2023-04-18T17:11:26.652Z,24.80
2023-04-18T17:16:26.244Z,24.35
2023-04-18T17:21:25.093Z,26.25
2023-04-18T17:26:25.756Z,24.05
2023-04-18T17:31:24.622Z,23.45
2023-04-18T17:36:24.760Z,20.83
2023-04-18T17:41:23.522Z,20.25
2023-04-18T17:46:22.262Z,20.40
2023-04-18T17:51:21.137Z,21.50
2023-04-18T17:56:22.117Z,22.25
2023-04-18T18:01:22.079Z,19.63
2023-04-18T18:06:21.266Z,20.52
2023-04-18T18:11:21.000Z,20.00
2023-04-18T18:16:20.452Z,22.00
2023-04-18T18:21:19.203Z,21.23
2023-04-18T18:26:17.984Z,19.73
2023-04-18T18:31:17.511Z,21.67
2023-04-18T18:36:16.477Z,21.25
2023-04-18T18:41:15.265Z,19.92
2023-04-18T18:46:18.177Z,20.48
2023-04-18T18:51:18.147Z,22.40
2023-04-18T18:56:16.920Z,21.40
2023-04-18T19:01:15.944Z,22.98
2023-04-18T19:06:14.974Z,24.40
2023-04-18T19:11:13.784Z,20.10
2023-04-18T19:16:12.968Z,23.23
2023-04-18T19:21:11.744Z,23.70
2023-04-18T19:26:10.545Z,24.08
2023-04-18T19:31:09.613Z,21.75
2023-04-18T19:36:08.432Z,23.35
2023-04-18T19:41:07.324Z,23.27
2023-04-18T19:46:06.196Z,27.67
2023-04-18T19:51:05.075Z,21.92
2023-04-18T19:56:05.035Z,25.08
2023-04-18T20:01:06.030Z,24.42
2023-04-18T20:06:05.716Z,24.42
2023-04-18T20:11:07.241Z,21.38
2023-04-18T20:16:07.443Z,21.13
2023-04-18T20:21:08.249Z,22.20
2023-04-18T20:26:07.118Z,22.20
2023-04-18T20:31:06.084Z,22.52
2023-04-18T20:36:06.485Z,22.52
2023-04-18T20:41:05.255Z,21.60
2023-04-18T20:46:04.065Z,22.77
2023-04-18T20:51:02.903Z,21.95
2023-04-18T20:56:03.105Z,18.30
2023-04-18T21:01:01.885Z,22.35
2023-04-18T21:06:00.659Z,21.73
2023-04-18T21:10:59.428Z,23.75
2023-04-18T21:15:58.427Z,23.65
2023-04-18T21:20:57.243Z,21.40
2023-04-18T21:25:56.082Z,18.48
2023-04-18T21:30:54.842Z,22.40
2023-04-18T21:35:53.693Z,18.95
2023-04-18T21:40:52.481Z,19.20
2023-04-18T21:45:51.298Z,22.67
2023-04-18T21:50:56.273Z,17.52
2023-04-18T21:55:55.084Z,20.55
2023-04-18T22:00:54.255Z,19.73
2023-04-18T22:05:53.387Z,22.48
2023-04-18T22:10:55.055Z,18.23
2023-04-18T22:15:53.966Z,23.98
2023-04-18T22:20:53.900Z,20.48
2023-04-18T22:25:52.792Z,17.85
2023-04-18T22:30:51.672Z,19.60
2023-04-18T22:35:50.564Z,22.65
2023-04-18T22:40:49.505Z,23.63
2023-04-18T22:45:48.494Z,20.90
2023-04-18T22:50:47.548Z,21.45
2023-04-18T22:55:46.735Z,19.92
2023-04-18T23:00:45.995Z,20.52
2023-04-18T23:05:44.754Z,19.67
2023-04-18T23:10:43.510Z,19.42
2023-04-18T23:15:42.431Z,21.02
2023-04-18T23:20:41.307Z,18.45
2023-04-18T23:25:40.142Z,18.42
2023-04-18T23:30:39.170Z,18.38
2023-04-18T23:35:37.982Z,19.58
2023-04-18T23:40:36.733Z,20.42
2023-04-18T23:45:36.600Z,20.63
2023-04-18T23:50:46.112Z,16.55
2023-04-18T23:55:46.223Z,15.95
